MHLC/LCE METAR and TAF weather

Enter ICAO airport designator
Station Type Date Time Source
MHLC METAR 2020/07/13 15:00 UTC NOAA

MHLC 131500Z VRB02KT 9999 FEW028 30/23 Q1014 A2995


Station Type Date Time Source
MHLC Decoded METAR 2020/07/13 15:00 UTC NOAA

La Ceiba Airport , Honduras (MHLC) 15-44N 086-52W 26M
Jul 13, 2020 - 11:00 AM EDT / 2020.07.13 1500 UTC
Wind: Variable at 2 MPH (2 KT):0
Visibility: greater than 7 mile(s):0
Sky conditions: mostly clear
Temperature: 86 F (30 C)
Heat index: 93.4 F (34.1 C):1
Dew Point: 73 F (23 C)
Relative Humidity: 66%
Pressure (altimeter): 29.95 in. Hg (1014 hPa)
ob: MHLC 131500Z VRB02KT 9999 FEW028 30/23 Q1014 A2995
cycle: 15

Station Type Date Time Source
MHLC TAF 2020/07/13 18:30 UTC NOAA

TAF MHLC 131510Z 1318/1418 08010KT 9999 SCT026TCU TX30/1318Z TN24/1412Z
TEMPO 1321/1400 -TSRA SCT026CB SCT080
BECMG 1400/1402 VRB02KT SCT026 SCT080
BECMG 1407/1409 13004KT SCT024
BECMG 1414/1416 05006KT

Example: see airport list